Time;durP1;ratioP1;P1;durP2;ratioP2;P2;SDS_P1;SDS_P2;PMS_P1;PMS_P2;Temp;Humidity;BMP_temperature;BMP_pressure;BME280_temperature;BME280_humidity;BME280_pressure;Samples;Min_cycle;Max_cycle;Signal;HPM_P1;HPM_P2
2022/11/07 00:02:18;;;;;;;2.10;0.80;;;16.40;99.90;;;;;;7405701;19;20344;-71
2022/11/07 00:04:50;;;;;;;1.55;0.65;;;16.40;99.90;;;;;;7407028;19;19923;-71
2022/11/07 00:07:19;;;;;;;3.17;0.70;;;16.40;99.90;;;;;;7408368;19;19934;-71
2022/11/07 00:09:48;;;;;;;3.50;0.40;;;16.40;99.90;;;;;;7405903;19;19931;-71
2022/11/07 00:12:17;;;;;;;2.08;1.02;;;16.40;99.90;;;;;;7405505;19;19914;-71
2022/11/07 00:14:46;;;;;;;1.92;0.90;;;16.40;99.90;;;;;;7406966;19;20328;-71
2022/11/07 00:17:17;;;;;;;3.80;0.98;;;16.40;99.90;;;;;;7407940;19;19919;-70
2022/11/07 00:19:46;;;;;;;1.40;0.57;;;16.40;99.90;;;;;;7406259;19;20416;-71
2022/11/07 00:22:18;;;;;;;1.40;0.52;;;16.40;99.90;;;;;;7405548;19;20021;-71
2022/11/07 00:24:47;;;;;;;1.45;0.77;;;16.40;99.90;;;;;;7407183;19;19922;-71
2022/11/07 00:27:16;;;;;;;1.63;0.70;;;16.40;99.90;;;;;;7408505;19;19918;-71
2022/11/07 00:29:44;;;;;;;1.60;0.60;;;16.40;99.90;;;;;;7405308;19;19915;-70
2022/11/07 00:32:13;;;;;;;2.35;0.55;;;16.40;99.90;;;;;;7405454;19;19934;-71
2022/11/07 00:34:42;;;;;;;1.65;0.68;;;16.40;99.90;;;;;;7405776;19;19922;-70
2022/11/07 00:37:11;;;;;;;2.38;0.30;;;16.40;99.90;;;;;;7407387;19;20260;-71
2022/11/07 00:39:42;;;;;;;1.85;0.65;;;16.40;99.90;;;;;;7404574;19;19923;-71
2022/11/07 00:42:11;;;;;;;1.42;0.40;;;16.40;99.90;;;;;;7405114;19;20320;-71
2022/11/07 00:44:40;;;;;;;1.33;0.60;;;16.40;99.90;;;;;;7407574;19;19974;-71
2022/11/07 00:47:09;;;;;;;2.65;0.90;;;16.40;99.90;;;;;;7409198;19;19923;-71
2022/11/07 00:49:38;;;;;;;2.17;0.30;;;16.40;99.90;;;;;;7404795;19;20277;-71
2022/11/07 00:52:07;;;;;;;2.55;0.77;;;16.40;99.90;;;;;;7407468;19;20544;-71
2022/11/07 00:54:35;;;;;;;1.42;0.73;;;16.40;99.90;;;;;;7405702;19;19918;-71
2022/11/07 00:57:07;;;;;;;2.20;1.05;;;16.40;99.90;;;;;;7407586;19;19919;-71
2022/11/07 00:59:36;;;;;;;2.85;0.95;;;16.40;99.90;;;;;;7404419;19;19926;-71
2022/11/07 01:02:05;;;;;;;1.10;0.20;;;16.40;99.90;;;;;;7407626;19;20326;-71
2022/11/07 01:07:15;;;;;;;1.80;0.20;;;16.40;99.90;;;;;;7407461;19;19949;-71
2022/11/07 01:09:44;;;;;;;0.88;0.20;;;16.40;99.90;;;;;;7404401;19;20364;-71
2022/11/07 01:12:15;;;;;;;1.30;0.70;;;16.40;99.90;;;;;;7406655;19;19923;-70
2022/11/07 01:14:44;;;;;;;2.83;0.30;;;16.40;99.90;;;;;;7405371;19;19918;-70
2022/11/07 01:17:14;;;;;;;1.40;0.88;;;16.40;99.90;;;;;;7407145;19;19982;-71
2022/11/07 01:19:43;;;;;;;1.48;0.65;;;16.40;99.90;;;;;;7405092;19;20349;-71
2022/11/07 01:22:12;;;;;;;1.55;0.65;;;16.40;99.90;;;;;;7406889;19;19927;-71
2022/11/07 01:24:41;;;;;;;1.58;0.73;;;16.40;99.90;;;;;;7402970;19;19915;-71
2022/11/07 01:27:13;;;;;;;1.40;0.68;;;16.40;99.90;;;;;;7406858;19;19925;-71
2022/11/07 01:29:45;;;;;;;1.70;0.75;;;16.40;99.90;;;;;;7401360;19;19923;-71
2022/11/07 01:32:14;;;;;;;1.55;0.70;;;16.40;99.90;;;;;;7407617;19;19982;-71
2022/11/07 01:34:43;;;;;;;1.05;0.20;;;16.40;99.90;;;;;;7403989;19;19921;-71
2022/11/07 01:37:11;;;;;;;1.75;0.22;;;16.40;99.90;;;;;;7406371;19;19925;-71
2022/11/07 01:39:40;;;;;;;1.50;0.75;;;16.40;99.90;;;;;;7403884;19;19926;-71
2022/11/07 01:42:11;;;;;;;1.60;0.88;;;16.40;99.90;;;;;;7403114;19;19915;-71
2022/11/07 01:44:58;;;;;;;2.40;0.77;;;16.50;99.90;;;;;;7403992;19;20336;-71
2022/11/07 01:47:31;;;;;;;1.85;0.60;;;16.40;99.90;;;;;;7406311;19;19929;-71
2022/11/07 01:50:01;;;;;;;1.50;1.10;;;16.40;99.90;;;;;;7403202;19;19939;-71
2022/11/07 01:52:35;;;;;;;1.42;0.57;;;16.50;99.90;;;;;;7406754;19;19926;-71
2022/11/07 01:55:08;;;;;;;1.80;0.98;;;16.50;99.90;;;;;;7405512;19;19918;-71
2022/11/07 01:57:40;;;;;;;1.67;0.45;;;16.50;99.90;;;;;;7405394;19;20277;-71
2022/11/07 02:00:15;;;;;;;2.60;0.50;;;16.50;99.90;;;;;;7401852;19;19974;-71
2022/11/07 02:02:48;;;;;;;2.20;0.60;;;16.50;99.90;;;;;;7406035;19;19921;-71
2022/11/07 02:05:23;;;;;;;1.58;0.57;;;16.50;99.90;;;;;;7404038;19;19926;-71
2022/11/07 02:07:52;;;;;;;1.83;0.85;;;16.50;99.90;;;;;;7403417;19;19921;-71
2022/11/07 02:10:22;;;;;;;2.38;1.25;;;16.50;99.90;;;;;;7401910;19;20033;-71
2022/11/07 02:12:51;;;;;;;1.08;0.20;;;16.50;99.90;;;;;;7401699;19;19929;-71
2022/11/07 02:15:25;;;;;;;1.83;0.77;;;16.50;99.90;;;;;;7401151;19;19921;-71
2022/11/07 02:17:55;;;;;;;1.58;0.75;;;16.50;99.90;;;;;;7402163;19;19922;-71
2022/11/07 02:20:24;;;;;;;2.83;1.40;;;16.50;99.90;;;;;;7402416;19;19938;-69
2022/11/07 02:22:57;;;;;;;7.28;0.20;;;16.50;99.90;;;;;;7401013;19;19914;-71
2022/11/07 02:25:29;;;;;;;3.35;0.70;;;16.50;99.90;;;;;;7401260;19;19929;-71
2022/11/07 02:28:00;;;;;;;3.30;0.50;;;16.50;99.90;;;;;;7405446;19;19927;-71
2022/11/07 02:30:33;;;;;;;3.97;0.77;;;16.60;99.90;;;;;;7402040;19;19926;-70
2022/11/07 02:33:02;;;;;;;3.83;0.77;;;16.60;99.90;;;;;;7401324;19;20349;-71
2022/11/07 02:35:40;;;;;;;2.33;0.70;;;16.60;99.90;;;;;;7400762;19;19929;-71
2022/11/07 02:38:13;;;;;;;3.05;0.70;;;16.60;99.90;;;;;;7401329;19;19924;-71
2022/11/07 02:40:46;;;;;;;2.67;0.68;;;16.60;99.90;;;;;;7401930;19;19922;-71
2022/11/07 02:43:17;;;;;;;4.32;0.82;;;16.60;99.90;;;;;;7408051;19;19914;-71
2022/11/07 02:45:47;;;;;;;2.13;0.90;;;16.60;99.90;;;;;;7408029;19;19938;-71
2022/11/07 02:48:16;;;;;;;4.50;0.77;;;16.60;99.90;;;;;;7410848;19;19919;-71
2022/11/07 02:50:45;;;;;;;2.80;0.75;;;16.60;99.90;;;;;;7408173;19;19923;-71
2022/11/07 02:53:14;;;;;;;5.00;1.35;;;16.60;99.90;;;;;;7412088;19;19919;-71
2022/11/07 02:55:46;;;;;;;2.03;0.70;;;16.60;99.90;;;;;;7406945;19;19922;-71
2022/11/07 02:58:15;;;;;;;2.88;0.68;;;16.60;99.90;;;;;;7407877;19;19918;-71
2022/11/07 03:00:44;;;;;;;3.38;1.10;;;16.60;99.90;;;;;;7408254;19;19935;-71
2022/11/07 03:03:13;;;;;;;3.33;1.15;;;16.50;99.90;;;;;;7407288;19;19931;-71
2022/11/07 03:05:42;;;;;;;2.72;0.63;;;16.50;99.90;;;;;;7408870;19;20014;-71
2022/11/07 03:08:11;;;;;;;3.03;0.60;;;16.60;99.90;;;;;;7407498;19;19914;-71
2022/11/07 03:10:40;;;;;;;5.78;1.02;;;16.50;99.90;;;;;;7407632;19;19930;-71
2022/11/07 03:13:11;;;;;;;3.17;0.70;;;16.60;99.90;;;;;;7406486;19;19942;-71
2022/11/07 03:15:42;;;;;;;1.77;0.75;;;16.50;99.90;;;;;;7407597;19;19927;-71
2022/11/07 03:18:12;;;;;;;1.85;0.20;;;16.60;99.90;;;;;;7407840;19;20253;-71
2022/11/07 03:20:41;;;;;;;2.22;0.20;;;16.50;99.90;;;;;;7407145;19;19921;-70
2022/11/07 03:23:11;;;;;;;2.05;0.90;;;16.50;99.90;;;;;;7410209;19;19918;-71
2022/11/07 03:25:39;;;;;;;2.10;0.57;;;16.60;99.90;;;;;;7405083;19;19923;-71
2022/11/07 03:28:11;;;;;;;1.83;0.65;;;16.50;99.90;;;;;;7405672;19;19918;-71
2022/11/07 03:30:40;;;;;;;3.00;0.90;;;16.50;99.90;;;;;;7408248;19;19915;-71
2022/11/07 03:33:09;;;;;;;1.10;0.10;;;16.50;99.90;;;;;;7409112;19;20317;-70
2022/11/07 03:35:38;;;;;;;2.15;0.80;;;16.50;99.90;;;;;;7406299;19;19919;-71
2022/11/07 03:38:07;;;;;;;1.27;0.30;;;16.50;99.90;;;;;;7411145;19;20249;-71
2022/11/07 03:40:35;;;;;;;1.33;0.52;;;16.50;99.90;;;;;;7407171;19;19915;-71
2022/11/07 03:43:04;;;;;;;2.80;0.60;;;16.50;99.90;;;;;;7408012;19;19975;-71
2022/11/07 03:45:36;;;;;;;2.92;0.63;;;16.60;99.90;;;;;;7409364;19;19929;-71
2022/11/07 03:48:05;;;;;;;2.75;0.70;;;16.50;99.90;;;;;;7409704;19;19934;-71
2022/11/07 03:50:34;;;;;;;1.88;0.30;;;16.50;99.90;;;;;;7406240;19;20398;-71
2022/11/07 03:53:03;;;;;;;1.42;0.20;;;16.50;99.90;;;;;;7405171;19;19926;-71
2022/11/07 03:55:31;;;;;;;1.60;0.55;;;16.60;99.90;;;;;;7404625;19;20383;-71
2022/11/07 03:58:00;;;;;;;2.53;0.77;;;16.50;99.90;;;;;;7406403;19;19911;-71
2022/11/07 04:00:29;;;;;;;1.55;0.55;;;16.50;99.90;;;;;;7404703;19;19933;-71
2022/11/07 04:03:03;;;;;;;2.38;0.80;;;16.50;99.90;;;;;;7405916;19;19938;-71
2022/11/07 04:05:31;;;;;;;1.13;0.20;;;16.50;99.90;;;;;;7404397;19;19921;-71
2022/11/07 04:08:00;;;;;;;1.27;0.52;;;16.50;99.90;;;;;;7405813;19;19925;-71
2022/11/07 04:10:29;;;;;;;1.45;0.50;;;16.50;99.90;;;;;;7407142;19;19974;-71
2022/11/07 04:18:24;;;;;;;1.45;0.63;;;16.50;99.90;;;;;;7405229;19;19917;-73
2022/11/07 04:20:53;;;;;;;2.03;0.73;;;16.50;99.90;;;;;;7407025;19;19919;-73
2022/11/07 04:23:22;;;;;;;2.58;0.88;;;16.50;99.90;;;;;;7404603;19;19919;-73
2022/11/07 04:28:32;;;;;;;2.03;0.70;;;16.50;99.90;;;;;;7406082;19;19922;-73
2022/11/07 04:31:01;;;;;;;1.70;0.57;;;16.50;99.90;;;;;;7405113;19;19918;-73
2022/11/07 04:33:33;;;;;;;2.05;0.75;;;16.60;99.90;;;;;;7404213;19;20337;-71
2022/11/07 04:36:01;;;;;;;1.58;0.73;;;16.50;99.90;;;;;;7405051;19;20360;-70
2022/11/07 04:38:30;;;;;;;1.25;0.85;;;16.50;99.90;;;;;;7405262;19;19915;-71
2022/11/07 04:41:00;;;;;;;1.42;0.80;;;16.50;99.90;;;;;;7407287;19;19925;-73
2022/11/07 04:43:29;;;;;;;1.90;0.77;;;16.50;99.90;;;;;;7406153;19;19921;-73
2022/11/07 04:45:58;;;;;;;1.88;0.82;;;16.50;99.90;;;;;;7404818;19;19938;-73
2022/11/07 04:48:27;;;;;;;1.40;0.60;;;16.50;99.90;;;;;;7405233;19;20351;-73
2022/11/07 04:50:58;;;;;;;1.23;0.70;;;16.50;99.90;;;;;;7405083;19;19933;-73
2022/11/07 04:53:27;;;;;;;1.67;0.60;;;16.60;99.90;;;;;;7405967;19;19918;-70
2022/11/07 04:55:56;;;;;;;1.85;0.73;;;16.50;99.90;;;;;;7406900;19;20569;-71
2022/11/07 04:58:24;;;;;;;2.25;0.60;;;16.50;99.90;;;;;;7408265;19;19919;-71
2022/11/07 05:00:53;;;;;;;1.30;0.75;;;16.50;99.90;;;;;;7404988;19;19934;-70
2022/11/07 05:03:22;;;;;;;2.30;0.70;;;16.60;99.90;;;;;;7403633;19;19915;-71
2022/11/07 05:05:51;;;;;;;1.75;0.80;;;16.50;99.90;;;;;;7403060;19;19926;-71
2022/11/07 05:08:22;;;;;;;1.40;0.30;;;16.50;99.90;;;;;;7403222;19;20348;-71
2022/11/07 05:10:51;;;;;;;1.33;0.65;;;16.50;99.90;;;;;;7405727;19;19922;-71
2022/11/07 05:13:20;;;;;;;2.25;0.80;;;16.50;99.90;;;;;;7403567;19;19938;-70
2022/11/07 05:15:50;;;;;;;1.67;0.10;;;16.50;99.90;;;;;;7404197;19;19985;-71
2022/11/07 05:18:23;;;;;;;1.55;0.20;;;16.50;99.90;;;;;;7404627;19;20302;-71
2022/11/07 05:20:53;;;;;;;1.10;0.60;;;16.50;99.90;;;;;;7402262;19;19915;-71
2022/11/07 05:23:22;;;;;;;1.55;0.90;;;16.50;99.90;;;;;;7402319;19;20376;-71
2022/11/07 05:25:52;;;;;;;1.48;0.22;;;16.50;99.90;;;;;;7403520;19;19915;-70
2022/11/07 05:28:23;;;;;;;1.90;0.60;;;16.50;99.90;;;;;;7402669;19;20329;-71
2022/11/07 05:30:55;;;;;;;1.40;0.70;;;16.50;99.90;;;;;;7404247;19;20359;-70
2022/11/07 05:33:24;;;;;;;0.93;0.20;;;16.50;99.90;;;;;;7403916;19;19918;-71
2022/11/07 05:35:53;;;;;;;1.70;0.55;;;16.50;99.90;;;;;;7403779;19;19918;-71
2022/11/07 05:38:24;;;;;;;2.03;0.95;;;16.50;99.90;;;;;;7403958;19;19922;-71
2022/11/07 05:40:53;;;;;;;1.40;0.77;;;16.50;99.90;;;;;;7403027;19;19913;-70
2022/11/07 05:43:23;;;;;;;2.17;0.20;;;16.50;99.90;;;;;;7406755;19;19914;-71
2022/11/07 05:45:52;;;;;;;1.00;0.50;;;16.50;99.90;;;;;;7402761;19;19929;-71
2022/11/07 05:48:21;;;;;;;1.23;0.63;;;16.50;99.90;;;;;;7406312;19;19915;-71
2022/11/07 05:50:50;;;;;;;1.67;0.60;;;16.50;99.90;;;;;;7403028;19;19911;-71
2022/11/07 05:53:20;;;;;;;2.08;0.65;;;16.50;99.90;;;;;;7404880;19;19914;-70
2022/11/07 05:55:51;;;;;;;0.90;0.50;;;16.50;99.90;;;;;;7407041;19;19926;-70
2022/11/07 05:58:21;;;;;;;3.55;0.73;;;16.50;99.90;;;;;;7402487;19;19915;-71
2022/11/07 06:00:50;;;;;;;1.08;0.52;;;16.50;99.90;;;;;;7404950;19;19933;-71
2022/11/07 06:03:19;;;;;;;1.40;0.90;;;16.50;99.90;;;;;;7402811;19;19975;-71
2022/11/07 06:05:48;;;;;;;1.05;0.20;;;16.50;99.90;;;;;;7403084;19;19918;-71
2022/11/07 06:08:17;;;;;;;1.75;0.30;;;16.50;99.90;;;;;;7402432;19;20382;-71
2022/11/07 06:10:46;;;;;;;1.42;0.30;;;16.50;99.90;;;;;;7402259;19;20329;-71
2022/11/07 06:13:18;;;;;;;2.70;0.47;;;16.50;99.90;;;;;;7400823;19;20246;-73
2022/11/07 06:15:48;;;;;;;2.28;0.93;;;16.50;99.90;;;;;;7405895;19;19925;-73
2022/11/07 06:18:18;;;;;;;1.90;0.70;;;16.50;99.90;;;;;;7412340;19;19918;-71
2022/11/07 06:20:47;;;;;;;0.90;0.52;;;16.50;99.90;;;;;;7409224;19;19921;-72
2022/11/07 06:23:17;;;;;;;7.00;0.80;;;16.50;99.90;;;;;;7408692;19;19915;-72
2022/11/07 06:25:46;;;;;;;7.03;1.00;;;16.50;99.90;;;;;;7408403;19;19925;-85
2022/11/07 06:28:17;;;;;;;9.13;2.65;;;16.60;99.90;;;;;;7403896;19;19923;-82
2022/11/07 06:30:46;;;;;;;368.67;25.70;;;16.20;99.90;;;;;;7397103;19;19930;-83
2022/11/07 06:33:18;;;;;;;13.13;3.63;;;15.20;99.90;;;;;;7391701;19;20035;-82
2022/11/07 06:35:47;;;;;;;11.02;2.67;;;14.40;99.90;;;;;;7397132;19;20558;-85
2022/11/07 06:38:16;;;;;;;;;;;13.60;99.90;;;;;;7398642;19;19921;-86
2022/11/07 06:40:46;;;;;;;6.38;2.42;;;13.10;99.90;;;;;;7395720;19;19919;-84
2022/11/07 06:43:20;;;;;;;7.78;2.55;;;13.00;99.90;;;;;;7398440;19;19923;-85
2022/11/07 06:45:49;;;;;;;6.07;1.80;;;12.70;99.90;;;;;;7396592;19;19919;-83
2022/11/07 06:48:18;;;;;;;5.80;2.78;;;12.50;99.90;;;;;;7395855;19;20542;-82
2022/11/07 06:50:47;;;;;;;7.13;2.45;;;12.50;99.90;;;;;;7406321;19;19918;-83
2022/11/07 06:53:16;;;;;;;8.55;2.40;;;12.30;99.90;;;;;;7411790;19;19922;-83
2022/11/07 06:55:45;;;;;;;5.53;1.77;;;12.20;99.90;;;;;;7407844;19;19918;-83
2022/11/07 06:58:16;;;;;;;8.57;2.45;;;12.20;99.90;;;;;;7408145;19;19986;-84
2022/11/07 07:00:45;;;;;;;6.43;2.03;;;12.20;99.90;;;;;;7407369;19;19936;-83
2022/11/07 07:03:14;;;;;;;6.60;2.90;;;12.30;99.90;;;;;;7408009;19;19918;-85
2022/11/07 07:05:43;;;;;;;6.18;2.22;;;12.10;99.90;;;;;;7408217;19;19927;-84
2022/11/07 07:08:14;;;;;;;9.10;2.53;;;12.10;99.90;;;;;;7406627;19;20375;-84
2022/11/07 07:10:45;;;;;;;4.93;1.65;;;12.10;99.90;;;;;;7408071;19;20267;-82
2022/11/07 07:13:18;;;;;;;5.22;2.30;;;12.30;99.90;;;;;;7406680;19;20343;-85
2022/11/07 07:15:54;;;;;;;4.07;2.10;;;12.40;99.90;;;;;;7405554;19;19928;-86
2022/11/07 07:18:24;;;;;;;7.85;2.85;;;12.50;99.90;;;;;;7404970;19;19926;-85
2022/11/07 07:20:53;;;;;;;6.75;1.75;;;12.60;99.90;;;;;;7411605;19;19919;-84
2022/11/07 07:23:23;;;;;;;6.20;2.78;;;12.60;99.90;;;;;;7411099;19;19918;-84
2022/11/07 07:25:52;;;;;;;6.90;2.03;;;12.60;99.90;;;;;;7405429;19;19918;-85
2022/11/07 07:28:24;;;;;;;5.97;1.90;;;12.50;99.90;;;;;;7403228;19;19939;-85
2022/11/07 07:30:52;;;;;;;8.20;2.15;;;12.50;99.90;;;;;;7406971;19;19922;-84
2022/11/07 07:33:21;;;;;;;8.43;2.40;;;12.30;99.90;;;;;;7406711;19;19911;-84
2022/11/07 07:35:50;;;;;;;8.18;3.60;;;12.40;99.90;;;;;;7406667;19;19974;-83
2022/11/07 07:38:19;;;;;;;8.48;3.85;;;12.30;99.90;;;;;;7405705;19;19932;-84
2022/11/07 07:40:48;;;;;;;8.20;3.53;;;12.20;99.90;;;;;;7405665;19;19919;-84
2022/11/07 07:43:17;;;;;;;11.95;3.13;;;12.10;99.90;;;;;;7404223;19;19931;-83
2022/11/07 07:45:48;;;;;;;7.25;3.70;;;12.10;99.90;;;;;;7408101;19;19925;-83
2022/11/07 07:48:17;;;;;;;7.22;2.10;;;12.10;99.90;;;;;;7403239;19;19914;-84
2022/11/07 07:50:48;;;;;;;12.45;4.50;;;12.30;99.90;;;;;;7410238;19;19914;-83
2022/11/07 07:53:17;;;;;;;9.82;3.78;;;12.20;99.90;;;;;;7406338;19;19990;-84
2022/11/07 07:55:46;;;;;;;10.20;3.88;;;12.20;99.90;;;;;;7406062;19;19914;-85
2022/11/07 07:58:16;;;;;;;7.40;4.03;;;12.20;99.90;;;;;;7406449;19;20343;-84
2022/11/07 08:00:47;;;;;;;9.32;3.17;;;12.10;99.90;;;;;;7406372;19;19947;-84
2022/11/07 08:03:16;;;;;;;7.82;2.67;;;12.00;99.90;;;;;;7404859;19;19959;-83
2022/11/07 08:05:45;;;;;;;11.95;3.47;;;11.90;99.90;;;;;;7406087;19;19970;-83
2022/11/07 08:08:14;;;;;;;23.23;5.20;;;11.90;99.90;;;;;;7403187;19;19934;-83
2022/11/07 08:10:43;;;;;;;9.27;3.20;;;12.00;99.90;;;;;;7405238;19;19919;-82
2022/11/07 08:13:12;;;;;;;9.93;4.13;;;12.00;99.90;;;;;;7405192;19;19978;-84
2022/11/07 08:15:41;;;;;;;11.93;4.07;;;12.00;99.90;;;;;;7405140;19;19926;-84
2022/11/07 08:18:12;;;;;;;5.47;2.85;;;12.20;99.90;;;;;;7405594;19;20078;-82
2022/11/07 08:20:41;;;;;;;12.10;3.58;;;12.10;99.90;;;;;;7405909;19;19938;-82
2022/11/07 08:23:12;;;;;;;8.15;4.63;;;12.00;99.90;;;;;;7403942;19;19942;-84
2022/11/07 08:25:41;;;;;;;10.73;4.22;;;12.00;99.90;;;;;;7403783;19;19923;-84
2022/11/07 08:28:10;;;;;;;11.93;3.42;;;12.00;99.90;;;;;;7403353;19;19922;-84
2022/11/07 08:30:39;;;;;;;10.25;2.78;;;12.00;99.90;;;;;;7404994;19;19983;-84
2022/11/07 08:33:08;;;;;;;8.52;3.53;;;12.10;99.90;;;;;;7403367;19;19918;-84
2022/11/07 08:35:40;;;;;;;10.95;2.97;;;12.10;99.90;;;;;;7403852;19;19922;-82
2022/11/07 08:38:09;;;;;;;9.38;2.50;;;12.10;99.90;;;;;;7408600;19;19922;-84
2022/11/07 08:40:38;;;;;;;7.78;2.63;;;12.10;99.90;;;;;;7404784;19;20261;-81
2022/11/07 08:43:06;;;;;;;10.82;3.00;;;12.10;99.90;;;;;;7404775;19;19939;-84
2022/11/07 08:45:38;;;;;;;9.77;2.88;;;12.10;99.90;;;;;;7405163;19;19910;-84
2022/11/07 08:48:08;;;;;;;6.05;2.60;;;12.10;99.90;;;;;;7408229;19;19921;-83
2022/11/07 08:50:39;;;;;;;9.90;3.40;;;12.20;99.90;;;;;;7404836;19;20338;-84
2022/11/07 08:53:08;;;;;;;7.13;3.47;;;12.20;99.90;;;;;;7405797;19;19914;-82
2022/11/07 08:55:38;;;;;;;11.45;2.22;;;12.10;99.90;;;;;;7404646;19;19915;-84
2022/11/07 08:58:08;;;;;;;10.80;3.75;;;12.00;99.90;;;;;;7403824;19;20439;-83
2022/11/07 09:00:38;;;;;;;7.07;3.45;;;12.10;99.90;;;;;;7404270;19;19911;-82
2022/11/07 09:03:12;;;;;;;7.55;3.72;;;12.20;99.90;;;;;;7404400;19;19921;-84
2022/11/07 09:05:44;;;;;;;10.02;3.65;;;12.30;99.90;;;;;;7403167;19;19925;-83
2022/11/07 09:08:16;;;;;;;9.60;2.25;;;12.20;99.90;;;;;;7402083;19;19918;-83
2022/11/07 09:10:44;;;;;;;7.68;1.55;;;12.30;99.90;;;;;;7404072;19;20254;-83
2022/11/07 09:13:13;;;;;;;6.55;1.98;;;12.30;99.90;;;;;;7403202;19;20299;-83
2022/11/07 09:15:42;;;;;;;6.85;2.78;;;12.40;99.90;;;;;;7404372;19;19924;-84
2022/11/07 09:18:11;;;;;;;13.30;3.35;;;12.40;99.90;;;;;;7403782;19;19978;-84
2022/11/07 09:20:40;;;;;;;8.52;3.35;;;12.50;99.90;;;;;;7403568;19;19926;-85
2022/11/07 09:23:12;;;;;;;7.55;3.10;;;12.50;99.90;;;;;;7402833;19;19922;-84
2022/11/07 09:25:41;;;;;;;10.85;2.40;;;12.60;99.90;;;;;;7406218;19;19921;-85
2022/11/07 09:28:10;;;;;;;8.52;3.13;;;12.60;99.90;;;;;;7402930;19;19919;-84
2022/11/07 09:30:40;;;;;;;7.40;2.65;;;12.60;99.90;;;;;;7403410;19;19926;-84
2022/11/07 09:33:09;;;;;;;10.73;2.17;;;12.70;99.90;;;;;;7403091;19;19922;-84
2022/11/07 09:35:38;;;;;;;8.02;1.80;;;12.80;99.90;;;;;;7403134;19;20338;-84
2022/11/07 09:38:07;;;;;;;7.10;1.95;;;12.90;99.90;;;;;;7403625;19;19915;-83
2022/11/07 09:40:48;;;;;;;6.90;2.60;;;13.10;99.90;;;;;;7406775;19;20395;-83
2022/11/07 09:43:38;;;;;;;12.40;3.25;;;13.10;99.90;;;;;;7404806;19;19922;-84
2022/11/07 09:46:21;;;;;;;8.40;1.95;;;13.10;99.90;;;;;;7402527;19;19922;-82
2022/11/07 09:48:54;;;;;;;8.82;2.63;;;13.10;99.90;;;;;;7401199;19;19927;-84
2022/11/07 09:51:28;;;;;;;10.65;3.22;;;13.20;99.90;;;;;;7407044;19;19930;-84
2022/11/07 09:54:01;;;;;;;7.95;1.52;;;13.20;99.90;;;;;;7412418;19;19922;-84
2022/11/07 09:56:34;;;;;;;7.65;2.25;;;13.10;99.90;;;;;;7409667;19;19918;-83
2022/11/07 09:59:08;;;;;;;5.50;1.80;;;13.20;99.90;;;;;;7408012;19;19922;-84
2022/11/07 10:01:37;;;;;;;11.48;3.25;;;13.30;99.90;;;;;;7409834;19;19915;-84
2022/11/07 10:04:06;;;;;;;11.95;2.22;;;13.30;99.90;;;;;;7408599;19;20238;-83
2022/11/07 10:06:43;;;;;;;6.93;2.47;;;13.30;99.90;;;;;;7413012;19;19927;-84
2022/11/07 10:09:19;;;;;;;8.45;2.35;;;13.30;99.90;;;;;;7405825;19;19922;-84
2022/11/07 10:12:01;;;;;;;7.22;3.10;;;13.30;99.90;;;;;;7412238;19;20333;-84
2022/11/07 10:14:48;;;;;;;6.70;1.92;;;13.30;99.90;;;;;;7406675;19;19930;-83
2022/11/07 10:17:26;;;;;;;5.32;1.67;;;13.30;99.90;;;;;;7408585;19;20053;-82
2022/11/07 10:20:10;;;;;;;8.15;1.88;;;13.30;99.90;;;;;;7407226;19;19919;-84
2022/11/07 10:22:49;;;;;;;9.18;2.85;;;13.30;99.90;;;;;;7411853;19;19919;-84
2022/11/07 10:25:30;;;;;;;8.25;2.35;;;13.30;99.90;;;;;;7408502;19;19919;-85
2022/11/07 10:28:16;;;;;;;11.15;2.38;;;13.40;99.90;;;;;;7408850;19;19919;-84
2022/11/07 10:30:48;;;;;;;10.55;2.35;;;13.50;99.90;;;;;;7410470;19;19950;-82
2022/11/07 10:33:28;;;;;;;8.20;2.28;;;13.40;99.90;;;;;;7405742;19;19981;-84
2022/11/07 10:36:03;;;;;;;5.78;2.15;;;13.40;99.90;;;;;;7411184;19;19922;-84
2022/11/07 10:38:35;;;;;;;6.03;2.13;;;13.40;99.90;;;;;;7408868;19;19929;-83
2022/11/07 10:41:04;;;;;;;7.88;1.92;;;13.40;99.90;;;;;;7409240;19;19914;-84
2022/11/07 10:43:39;;;;;;;8.45;1.75;;;13.50;99.90;;;;;;7406483;19;19921;-84
2022/11/07 10:46:15;;;;;;;11.77;2.60;;;13.60;99.90;;;;;;7408035;19;19970;-84
2022/11/07 10:48:55;;;;;;;9.18;2.05;;;13.50;99.90;;;;;;7405659;19;19930;-84
2022/11/07 10:51:38;;;;;;;9.45;2.35;;;13.50;99.90;;;;;;7408482;19;20299;-84
2022/11/07 10:54:07;;;;;;;11.20;1.30;;;13.50;99.90;;;;;;7406738;19;19974;-84
2022/11/07 10:56:47;;;;;;;7.95;1.52;;;13.50;99.90;;;;;;7410731;19;19931;-84
2022/11/07 10:59:26;;;;;;;6.20;1.48;;;13.50;99.90;;;;;;7407721;19;19925;-86
2022/11/07 11:01:58;;;;;;;6.53;1.58;;;13.50;99.90;;;;;;7403643;19;19914;-86
2022/11/07 11:04:30;;;;;;;5.15;1.95;;;13.50;99.90;;;;;;7402512;19;20578;-86
2022/11/07 11:07:00;;;;;;;9.35;1.85;;;13.60;99.90;;;;;;7408619;19;20283;-85
2022/11/07 11:09:35;;;;;;;8.77;2.75;;;13.60;99.90;;;;;;7409430;19;19934;-94
2022/11/07 11:12:09;;;;;;;7.38;2.35;;;13.60;99.90;;;;;;7409008;19;19988;-93
2022/11/07 11:14:40;;;;;;;12.18;2.10;;;13.70;99.90;;;;;;7406522;19;19926;-94
2022/11/07 11:17:26;;;;;;;7.13;1.88;;;13.70;99.90;;;;;;7403799;19;20488;-92
2022/11/07 11:19:55;;;;;;;6.65;2.10;;;13.60;99.90;;;;;;7407558;19;20424;-92
2022/11/07 11:22:27;;;;;;;7.88;2.13;;;13.60;99.90;;;;;;7407370;19;20574;-90
2022/11/07 11:25:05;;;;;;;3.85;1.83;;;13.50;99.90;;;;;;7411270;19;19915;-92
2022/11/07 11:27:36;;;;;;;8.95;2.50;;;13.50;99.90;;;;;;7407019;19;19910;-89
2022/11/07 11:30:13;;;;;;;10.90;1.92;;;13.50;99.90;;;;;;7405245;19;19982;-85
2022/11/07 11:32:47;;;;;;;6.45;2.65;;;13.50;99.90;;;;;;7410404;19;19925;-88
2022/11/07 11:35:31;;;;;;;10.88;2.30;;;13.50;99.90;;;;;;7407069;19;20277;-87
2022/11/07 11:38:06;;;;;;;7.15;2.08;;;13.50;99.90;;;;;;7394247;19;20284;-86
2022/11/07 11:40:39;;;;;;;9.27;2.85;;;13.50;99.90;;;;;;7400334;19;19926;-90
2022/11/07 11:43:19;;;;;;;11.05;2.45;;;13.50;99.90;;;;;;7404426;19;19922;-91
2022/11/07 11:46:03;;;;;;;10.57;2.40;;;13.50;99.90;;;;;;7403817;19;19925;-90
2022/11/07 11:48:37;;;;;;;7.60;2.40;;;13.70;99.90;;;;;;7407341;19;19947;-91
2022/11/07 11:51:09;;;;;;;8.93;1.70;;;13.80;99.90;;;;;;7407274;19;20269;-89
2022/11/07 11:53:38;;;;;;;9.98;2.10;;;13.90;99.90;;;;;;7406940;19;19926;-92
2022/11/07 11:56:27;;;;;;;11.88;1.80;;;13.90;99.90;;;;;;7403367;19;19914;-84
2022/11/07 11:59:21;;;;;;;8.25;1.92;;;14.00;99.90;;;;;;7406857;19;19923;-83
2022/11/07 12:02:02;;;;;;;7.20;2.70;;;14.00;99.90;;;;;;7406384;19;19977;-84
2022/11/07 12:04:45;;;;;;;5.15;1.90;;;13.90;99.90;;;;;;7406873;19;19919;-83
2022/11/07 12:07:41;;;;;;;6.70;1.67;;;13.90;99.90;;;;;;7404589;19;20319;-83
2022/11/07 12:10:16;;;;;;;7.95;2.63;;;14.00;99.90;;;;;;7403044;19;19922;-83
2022/11/07 12:12:58;;;;;;;7.38;2.50;;;13.90;99.90;;;;;;7404703;19;20329;-83
2022/11/07 12:15:35;;;;;;;6.07;1.98;;;13.90;99.90;;;;;;7402059;19;19918;-83
2022/11/07 12:18:16;;;;;;;9.02;1.48;;;13.90;99.90;;;;;;7402931;19;19918;-83
2022/11/07 12:20:59;;;;;;;5.63;1.15;;;13.90;99.90;;;;;;7405924;19;19922;-83
2022/11/07 12:23:54;;;;;;;6.32;2.47;;;13.90;99.90;;;;;;7403591;19;19966;-87
2022/11/07 12:26:27;;;;;;;5.38;2.30;;;14.00;99.90;;;;;;7400857;19;20022;-90
2022/11/07 12:29:06;;;;;;;8.02;2.63;;;14.00;99.90;;;;;;7402069;19;19918;-87
2022/11/07 12:31:46;;;;;;;3.50;1.50;;;14.10;99.90;;;;;;7404660;19;19922;-87
2022/11/07 12:34:28;;;;;;;5.72;2.28;;;14.20;99.90;;;;;;7402363;19;19943;-88
2022/11/07 12:37:18;;;;;;;11.20;1.83;;;14.30;99.90;;;;;;7401685;19;19990;-87
2022/11/07 12:40:04;;;;;;;7.60;2.47;;;14.50;99.90;;;;;;7397613;19;19918;-87
2022/11/07 12:42:48;;;;;;;5.15;1.83;;;14.50;99.90;;;;;;7404809;19;19923;-87
2022/11/07 12:45:26;;;;;;;7.22;2.03;;;14.60;99.90;;;;;;7405381;19;19918;-88
2022/11/07 12:48:09;;;;;;;11.40;1.95;;;14.60;99.90;;;;;;7401699;19;19926;-88
2022/11/07 12:50:49;;;;;;;4.70;0.82;;;14.60;99.90;;;;;;7403112;19;19918;-87
2022/11/07 12:53:36;;;;;;;8.80;1.85;;;14.70;99.90;;;;;;7406928;19;19919;-87
2022/11/07 12:56:08;;;;;;;4.45;1.60;;;14.70;99.90;;;;;;7403575;19;19915;-87
2022/11/07 12:58:40;;;;;;;6.18;1.80;;;14.70;99.90;;;;;;7403298;19;19923;-87
2022/11/07 13:01:09;;;;;;;4.53;1.25;;;14.70;99.90;;;;;;7405098;19;19918;-87
2022/11/07 13:03:55;;;;;;;6.63;2.42;;;14.80;99.90;;;;;;7405767;19;19925;-88
2022/11/07 13:06:34;;;;;;;9.05;1.58;;;14.90;99.90;;;;;;7404095;19;19923;-87
2022/11/07 13:09:12;;;;;;;5.40;1.77;;;15.00;99.90;;;;;;7402699;19;19922;-88
2022/11/07 13:11:50;;;;;;;8.98;1.23;;;15.00;99.90;;;;;;7404769;19;19922;-87
2022/11/07 13:14:27;;;;;;;6.22;2.10;;;14.90;99.90;;;;;;7402780;19;19930;-86
2022/11/07 13:17:13;;;;;;;4.47;1.10;;;14.90;99.90;;;;;;7404604;19;19925;-87
2022/11/07 13:19:43;;;;;;;11.38;2.65;;;14.90;99.90;;;;;;7402634;19;20328;-88
2022/11/07 13:22:32;;;;;;;8.35;2.13;;;14.90;99.90;;;;;;7403754;19;19915;-87